Time;durP1;ratioP1;P1;durP2;ratioP2;P2;SDS_P1;SDS_P2;PMS_P1;PMS_P2;Temp;Humidity;BMP_temperature;BMP_pressure;BME280_temperature;BME280_humidity;BME280_pressure;Samples;Min_cycle;Max_cycle;Signal;HPM_P1;HPM_P2
2023/07/02 00:02:19;;;;;;;11.05;6.10;;;;;;;-143.21;77.45;71170.03;5131528;27;20198;-78
2023/07/02 00:04:45;;;;;;;13.45;6.22;;;;;;;-143.21;77.59;71179.94;5131225;27;20252;-78
2023/07/02 00:07:12;;;;;;;11.93;6.93;;;;;;;-143.21;77.93;71187.88;5130827;27;20199;-79
2023/07/02 00:09:39;;;;;;;19.67;7.40;;;;;;;-143.21;79.03;71193.81;5132232;27;20765;-81
2023/07/02 00:12:08;;;;;;;14.75;6.97;;;;;;;-143.21;78.13;71193.81;5133022;27;20211;-80
2023/07/02 00:14:35;;;;;;;11.23;6.72;;;;;;;-143.21;77.99;71191.84;5132507;27;20202;-81
2023/07/02 00:17:03;;;;;;;11.60;6.30;;;;;;;-143.21;78.50;71189.84;5133015;27;20315;-81
2023/07/02 00:19:30;;;;;;;10.68;6.60;;;;;;;-143.21;78.56;71195.81;5132722;27;20661;-81
2023/07/02 00:21:58;;;;;;;10.75;6.47;;;;;;;-143.21;78.29;71187.88;5132001;27;20713;-81
2023/07/02 00:24:24;;;;;;;13.77;7.15;;;;;;;-143.21;78.36;71189.84;5132147;27;20195;-82
2023/07/02 00:26:51;;;;;;;15.55;9.38;;;;;;;-143.21;78.40;71197.78;5131642;27;20199;-82
2023/07/02 00:29:19;;;;;;;28.13;17.42;;;;;;;-143.21;78.54;71195.81;5132128;27;20218;-82
2023/07/02 00:31:46;;;;;;;33.42;23.02;;;;;;;-143.21;78.27;71201.75;5132578;27;20222;-81
2023/07/02 00:34:14;;;;;;;28.00;18.95;;;;;;;-143.21;78.09;71203.72;5132782;27;20195;-81
2023/07/02 00:36:41;;;;;;;31.98;18.77;;;;;;;-143.21;78.15;71213.66;5132238;27;20187;-81
2023/07/02 00:39:08;;;;;;;24.23;14.05;;;;;;;-143.21;77.96;71205.72;5132210;27;20231;-81
2023/07/02 00:41:35;;;;;;;17.95;10.30;;;;;;;-143.21;77.34;71207.69;5132984;27;20192;-81
2023/07/02 00:44:02;;;;;;;20.40;11.00;;;;;;;-143.21;77.93;71215.63;5132622;27;20187;-81
2023/07/02 00:46:28;;;;;;;16.15;9.35;;;;;;;-143.21;77.85;71213.66;5132487;27;20187;-82
2023/07/02 00:48:56;;;;;;;17.30;9.27;;;;;;;-143.21;77.68;71213.66;5132565;27;20188;-81
2023/07/02 00:51:26;;;;;;;16.92;9.13;;;;;;;-143.21;77.77;71215.63;5132136;27;20211;-81
2023/07/02 00:53:55;;;;;;;15.90;8.73;;;;;;;-143.21;77.74;71205.72;5132296;27;20195;-81
2023/07/02 00:56:22;;;;;;;18.00;7.82;;;;;;;-143.21;77.99;71205.72;5132474;27;20198;-81
2023/07/02 00:58:51;;;;;;;11.35;6.97;;;;;;;-143.21;78.00;71197.78;5131454;27;20199;-81
2023/07/02 01:01:19;;;;;;;13.98;6.88;;;;;;;-143.21;78.52;71207.69;5132484;28;20187;-80
2023/07/02 01:03:53;;;;;;;11.93;6.95;;;;;;;-143.21;79.03;71217.59;5131976;28;20188;-79
2023/07/02 01:06:24;;;;;;;13.50;6.65;;;;;;;-143.21;79.26;71225.53;5132474;28;20226;-79
2023/07/02 01:08:55;;;;;;;11.30;6.70;;;;;;;-143.21;79.13;71223.56;5132368;28;20187;-79
2023/07/02 01:11:26;;;;;;;11.80;6.45;;;;;;;-143.21;79.94;71229.50;5132088;28;20615;-79
2023/07/02 01:13:56;;;;;;;13.98;6.38;;;;;;;-143.21;79.96;71241.41;5132350;28;20195;-79
2023/07/02 01:16:23;;;;;;;10.65;6.50;;;;;;;-143.21;80.26;71249.34;5132300;28;20561;-79
2023/07/02 01:18:54;;;;;;;11.35;6.25;;;;;;;-143.21;80.77;71251.31;5132515;28;20187;-80
2023/07/02 01:21:23;;;;;;;10.82;6.95;;;;;;;-143.21;80.79;71251.31;5132157;28;20231;-80
2023/07/02 01:23:53;;;;;;;13.07;6.43;;;;;;;-143.21;80.92;71251.31;5132316;28;20912;-80
2023/07/02 01:26:20;;;;;;;14.40;6.50;;;;;;;-143.21;80.92;71239.41;5129276;28;20207;-80
2023/07/02 01:28:47;;;;;;;12.65;6.45;;;;;;;-143.21;81.13;71223.56;5111736;28;20618;-80
2023/07/02 01:31:14;;;;;;;12.85;6.45;;;;;;;-143.21;81.13;71223.56;5111303;28;20277;-77
2023/07/02 01:33:42;;;;;;;12.20;6.40;;;;;;;-143.21;80.73;71223.56;5111533;28;20551;-77
2023/07/02 01:36:08;;;;;;;14.15;7.32;;;;;;;-143.21;80.78;71227.53;5121036;28;20209;-78
2023/07/02 01:38:37;;;;;;;13.63;6.75;;;;;;;-143.21;80.66;71209.69;5131327;28;20203;-77
2023/07/02 01:41:03;;;;;;;9.82;6.78;;;;;;;-143.21;80.56;71203.72;5131716;28;20187;-77
2023/07/02 01:43:30;;;;;;;10.18;6.25;;;;;;;-143.21;80.63;71205.72;5131762;28;20674;-78
2023/07/02 01:45:59;;;;;;;12.95;6.53;;;;;;;-143.21;80.08;71193.81;5131778;28;20187;-78
2023/07/02 01:48:26;;;;;;;11.13;6.82;;;;;;;-143.21;79.93;71187.88;5131833;28;20761;-78
2023/07/02 01:50:52;;;;;;;10.75;6.30;;;;;;;-143.21;80.29;71187.88;5132066;28;20214;-77
2023/07/02 01:53:19;;;;;;;13.57;6.57;;;;;;;-143.21;80.21;71183.91;5131528;28;20622;-77
2023/07/02 01:55:47;;;;;;;12.70;6.75;;;;;;;-143.21;80.20;71174.00;5132157;28;20240;-78
2023/07/02 01:58:14;;;;;;;14.18;7.60;;;;;;;-143.21;80.06;71179.94;5132181;28;20191;-78
2023/07/02 02:00:41;;;;;;;10.80;6.38;;;;;;;-143.21;79.32;71162.09;5131798;28;20199;-77
2023/07/02 02:03:08;;;;;;;14.35;7.15;;;;;;;-143.21;79.49;71160.13;5131708;28;20195;-78
2023/07/02 02:05:35;;;;;;;12.95;6.95;;;;;;;-143.21;79.53;71162.09;5131894;28;20199;-77
2023/07/02 02:08:01;;;;;;;14.00;7.20;;;;;;;-143.21;79.73;71170.03;5131515;28;20204;-77
2023/07/02 02:10:28;;;;;;;11.23;7.05;;;;;;;-143.21;79.63;71174.00;5132563;27;20195;-77
2023/07/02 02:12:56;;;;;;;14.48;7.53;;;;;;;-143.21;79.30;71160.13;5135436;27;20215;-78
2023/07/02 02:15:23;;;;;;;17.65;7.85;;;;;;;-143.21;78.97;71168.06;5135238;27;20206;-77
2023/07/02 02:17:50;;;;;;;15.88;8.65;;;;;;;-143.21;78.88;71179.94;5135366;27;20195;-78
2023/07/02 02:20:17;;;;;;;13.60;8.60;;;;;;;-143.21;79.05;71181.94;5134773;27;20195;-77
2023/07/02 02:22:44;;;;;;;15.55;8.50;;;;;;;-143.21;79.31;71174.00;5135127;27;20638;-79
2023/07/02 02:25:11;;;;;;;13.38;8.63;;;;;;;-143.21;79.70;71187.88;5135247;27;20195;-79
2023/07/02 02:27:38;;;;;;;12.55;8.63;;;;;;;-143.21;79.76;71181.94;5154011;27;20679;-78
2023/07/02 02:30:08;;;;;;;14.98;8.45;;;;;;;-143.21;79.22;71175.97;5155690;27;20669;-78
2023/07/02 02:32:35;;;;;;;18.88;8.30;;;;;;;-143.21;79.79;71193.81;5155842;27;20222;-78
2023/07/02 02:35:02;;;;;;;18.05;8.07;;;;;;;-143.21;80.31;71195.81;5155342;27;20202;-78
2023/07/02 02:37:29;;;;;;;17.52;8.45;;;;;;;-143.21;80.16;71195.81;5122896;27;20206;-78
2023/07/02 02:39:57;;;;;;;20.50;8.88;;;;;;;-143.21;80.25;71193.81;5134854;27;20191;-78
2023/07/02 02:42:23;;;;;;;16.17;8.18;;;;;;;-143.21;79.93;71181.94;5134883;27;20222;-78
2023/07/02 02:44:50;;;;;;;17.95;8.48;;;;;;;-143.21;80.00;71189.84;5134509;27;20187;-78
2023/07/02 02:47:18;;;;;;;16.25;8.27;;;;;;;-143.21;79.89;71187.88;5134784;27;20195;-79
2023/07/02 02:49:45;;;;;;;15.68;7.90;;;;;;;-143.21;79.07;71181.94;5135059;27;20196;-78
2023/07/02 02:52:14;;;;;;;20.92;8.45;;;;;;;-143.21;78.53;71187.88;5134323;27;20296;-78
2023/07/02 02:54:41;;;;;;;16.17;8.77;;;;;;;-143.21;78.29;71181.94;5134014;27;20218;-78
2023/07/02 02:57:08;;;;;;;18.67;8.43;;;;;;;-143.21;78.27;71183.91;5134189;27;20187;-77
2023/07/02 02:59:34;;;;;;;15.57;8.95;;;;;;;-143.21;78.50;71185.88;5134083;27;20195;-77
2023/07/02 03:02:01;;;;;;;19.40;8.02;;;;;;;-143.21;78.71;71195.81;5134093;27;20196;-76
2023/07/02 03:04:29;;;;;;;13.60;8.63;;;;;;;-143.21;78.66;71195.81;5134113;27;20192;-78
2023/07/02 03:06:56;;;;;;;13.55;8.30;;;;;;;-143.21;78.32;71193.81;5134224;27;20214;-77
2023/07/02 03:09:23;;;;;;;20.17;8.65;;;;;;;-143.21;78.20;71187.88;5134016;27;20606;-77
2023/07/02 03:11:50;;;;;;;20.80;8.32;;;;;;;-143.21;78.53;71185.88;5133866;27;20631;-78
2023/07/02 03:14:17;;;;;;;16.67;7.70;;;;;;;-143.21;78.66;71183.91;5134165;27;20558;-78
2023/07/02 03:16:45;;;;;;;14.02;7.88;;;;;;;-143.21;78.47;71181.94;5133519;27;20573;-77
2023/07/02 03:19:14;;;;;;;13.70;7.28;;;;;;;-143.21;77.90;71179.94;5133674;27;20191;-78
2023/07/02 03:21:43;;;;;;;12.43;7.35;;;;;;;-143.21;78.06;71187.88;5132698;27;20764;-78
2023/07/02 03:24:11;;;;;;;14.05;7.55;;;;;;;-143.21;77.58;71193.81;5133384;27;20202;-77
2023/07/02 03:26:38;;;;;;;13.48;7.93;;;;;;;-143.21;77.74;71195.81;5133525;27;20700;-76
2023/07/02 03:29:05;;;;;;;13.88;7.70;;;;;;;-143.21;76.82;71189.84;5133176;27;20192;-76
2023/07/02 03:31:32;;;;;;;11.75;7.45;;;;;;;-143.21;76.38;71181.94;5133610;27;20245;-77
2023/07/02 03:33:59;;;;;;;11.95;7.18;;;;;;;-143.21;76.58;71191.84;5133465;27;20244;-77
2023/07/02 03:36:25;;;;;;;12.70;7.68;;;;;;;-143.21;76.69;71199.78;5133408;27;20207;-77
2023/07/02 03:38:53;;;;;;;14.80;7.47;;;;;;;-143.21;76.96;71205.72;5133528;27;20196;-77
2023/07/02 03:41:20;;;;;;;13.38;7.05;;;;;;;-143.21;77.41;71217.59;5133529;27;20191;-77
2023/07/02 03:43:47;;;;;;;16.40;7.60;;;;;;;-143.21;77.69;71215.63;5133335;27;20204;-77
2023/07/02 03:46:14;;;;;;;18.23;8.02;;;;;;;-143.21;77.87;71205.72;5133403;27;20214;-77
2023/07/02 03:48:41;;;;;;;14.90;7.78;;;;;;;-143.21;77.57;71195.81;5133370;27;20223;-77
2023/07/02 03:51:08;;;;;;;16.15;7.88;;;;;;;-143.21;77.20;71189.84;5133086;27;20196;-76
2023/07/02 03:53:35;;;;;;;21.85;7.30;;;;;;;-143.21;77.06;71183.91;5133189;27;20211;-79
2023/07/02 03:56:05;;;;;;;12.52;7.53;;;;;;;-143.21;76.85;71183.91;5133386;27;20206;-77
2023/07/02 03:58:33;;;;;;;15.00;8.05;;;;;;;-143.21;76.62;71177.97;5133180;27;20194;-77
2023/07/02 04:01:00;;;;;;;12.52;7.25;;;;;;;-143.21;76.72;71172.00;5132395;27;20604;-78
2023/07/02 04:03:27;;;;;;;15.43;7.30;;;;;;;-143.21;76.12;71172.00;5133422;27;20214;-77
2023/07/02 04:05:53;;;;;;;14.30;7.13;;;;;;;-143.21;75.64;71175.97;5133578;27;20207;-79
2023/07/02 04:08:21;;;;;;;12.43;6.80;;;;;;;-143.21;75.24;71175.97;5133137;27;20602;-78
2023/07/02 04:10:48;;;;;;;11.90;7.15;;;;;;;-143.21;75.78;71183.91;5137517;27;20210;-78
2023/07/02 04:13:17;;;;;;;14.00;7.10;;;;;;;-143.21;76.37;71195.81;5149179;27;20219;-77
2023/07/02 04:15:43;;;;;;;14.43;7.35;;;;;;;-143.21;76.80;71195.81;5132593;27;20606;-77
2023/07/02 04:18:10;;;;;;;12.90;7.30;;;;;;;-143.21;76.95;71199.78;5132693;27;20665;-77
2023/07/02 04:20:38;;;;;;;13.38;7.53;;;;;;;-143.21;77.59;71207.69;5132594;27;20230;-78
2023/07/02 04:23:05;;;;;;;18.40;8.63;;;;;;;-143.21;77.17;71201.75;5133216;27;20279;-79
2023/07/02 04:25:32;;;;;;;16.27;8.73;;;;;;;-143.21;76.82;71189.84;5132589;27;20192;-78
2023/07/02 04:27:59;;;;;;;24.45;8.77;;;;;;;-143.21;77.24;71203.72;5132966;27;20248;-78
2023/07/02 04:30:27;;;;;;;15.07;8.38;;;;;;;-143.21;76.93;71203.72;5132520;27;20573;-79
2023/07/02 04:32:54;;;;;;;15.32;9.05;;;;;;;-143.21;76.65;71193.81;5132667;27;20215;-78
2023/07/02 04:35:20;;;;;;;15.77;8.40;;;;;;;-143.21;76.70;71193.81;5132334;27;20677;-78
2023/07/02 04:37:47;;;;;;;17.10;8.77;;;;;;;-143.21;77.29;71203.72;5132532;27;20622;-78
2023/07/02 04:40:14;;;;;;;17.92;8.30;;;;;;;-143.21;76.93;71213.66;5132688;27;20187;-78
2023/07/02 04:42:46;;;;;;;22.98;9.38;;;;;;;-143.21;77.22;71217.59;5132870;27;20187;-78
2023/07/02 04:45:15;;;;;;;17.30;8.90;;;;;;;-143.21;77.53;71225.53;5132269;27;20581;-77
2023/07/02 04:47:43;;;;;;;23.85;8.40;;;;;;;-143.21;77.95;71227.53;5139606;27;20199;-77
2023/07/02 04:50:11;;;;;;;15.93;8.50;;;;;;;-143.21;77.87;71231.50;5153052;27;20259;-77
2023/07/02 04:52:38;;;;;;;18.50;8.55;;;;;;;-143.21;78.14;71217.59;5153115;27;20976;-77
2023/07/02 04:55:06;;;;;;;18.58;8.55;;;;;;;-143.21;78.00;71219.59;5152799;27;20213;-77
2023/07/02 04:57:33;;;;;;;25.98;8.57;;;;;;;-143.21;77.83;71207.69;5153274;27;20247;-77
2023/07/02 04:59:59;;;;;;;15.77;8.40;;;;;;;-143.21;77.34;71207.69;5152767;27;20194;-78
2023/07/02 05:02:26;;;;;;;14.55;8.32;;;;;;;-143.21;77.19;71199.78;5152890;27;20665;-79
2023/07/02 05:04:54;;;;;;;12.52;7.72;;;;;;;-143.21;76.84;71185.88;5152831;27;20206;-78
2023/07/02 05:07:21;;;;;;;21.77;8.63;;;;;;;-143.21;76.97;71187.88;5133048;27;20214;-78
2023/07/02 05:09:51;;;;;;;13.88;7.65;;;;;;;-143.21;77.00;71183.91;5129296;28;20214;-77
2023/07/02 05:12:18;;;;;;;18.13;8.43;;;;;;;-143.21;76.54;71187.88;5130073;28;20223;-78
2023/07/02 05:14:46;;;;;;;15.05;8.07;;;;;;;-143.21;76.29;71181.94;5130234;28;20199;-78
2023/07/02 05:17:14;;;;;;;14.52;7.90;;;;;;;-143.21;76.31;71177.97;5129774;28;20260;-79
2023/07/02 05:19:41;;;;;;;16.75;8.20;;;;;;;-143.21;76.16;71166.06;5129628;28;20206;-76
2023/07/02 05:22:13;;;;;;;13.05;8.13;;;;;;;-143.21;75.82;71164.09;5129596;28;20263;-78
2023/07/02 05:24:41;;;;;;;13.85;8.50;;;;;;;-143.21;75.55;71152.19;5129441;28;20186;-78
2023/07/02 05:27:08;;;;;;;15.02;8.35;;;;;;;-143.21;75.41;71154.16;5129270;28;20180;-77
2023/07/02 05:29:35;;;;;;;13.50;7.70;;;;;;;-143.21;75.02;71144.25;5130920;28;20549;-80
2023/07/02 05:32:01;;;;;;;15.70;8.20;;;;;;;-143.21;75.08;71144.25;5131397;28;20203;-80
2023/07/02 05:34:33;;;;;;;14.38;8.18;;;;;;;-143.21;74.70;71128.41;5131568;28;20210;-80
2023/07/02 05:37:00;;;;;;;15.27;8.25;;;;;;;-143.21;74.95;71132.38;5132207;28;20207;-77
2023/07/02 05:39:29;;;;;;;19.73;9.38;;;;;;;-143.21;75.08;71136.31;5130944;28;20218;-78
2023/07/02 05:42:01;;;;;;;20.58;9.20;;;;;;;-143.21;74.72;71140.28;5128399;28;20199;-77
2023/07/02 05:44:28;;;;;;;15.10;8.85;;;;;;;-143.21;75.11;71142.28;5130522;27;20200;-77
2023/07/02 05:46:57;;;;;;;15.32;8.70;;;;;;;-143.21;75.23;71144.25;5134361;27;20226;-77
2023/07/02 05:49:26;;;;;;;16.05;8.80;;;;;;;-143.21;75.59;71148.22;5134245;27;20199;-76
2023/07/02 05:51:53;;;;;;;16.63;9.48;;;;;;;-143.21;75.14;71142.28;5134128;27;20197;-77
2023/07/02 05:54:19;;;;;;;17.88;9.18;;;;;;;-143.21;75.01;71144.25;5133954;27;20195;-76
2023/07/02 05:56:47;;;;;;;16.85;9.23;;;;;;;-143.21;74.93;71132.38;5133347;27;20207;-75
2023/07/02 05:59:17;;;;;;;16.88;9.27;;;;;;;-143.21;74.12;71116.50;5133037;27;20234;-77
2023/07/02 06:01:45;;;;;;;17.25;9.55;;;;;;;-143.21;74.08;71120.47;5133443;27;20195;-76
2023/07/02 06:04:12;;;;;;;16.17;9.43;;;;;;;-143.21;74.09;71116.50;5133414;27;20198;-77
2023/07/02 06:06:39;;;;;;;19.88;8.90;;;;;;;-143.21;74.40;71112.53;5133081;27;20252;-78
2023/07/02 06:09:06;;;;;;;15.07;10.05;;;;;;;-143.21;73.22;71112.53;5132860;27;20188;-80
2023/07/02 06:11:33;;;;;;;19.90;9.40;;;;;;;-143.21;73.78;71128.41;5132964;27;20196;-78
2023/07/02 06:14:01;;;;;;;16.95;9.77;;;;;;;-143.21;74.23;71132.38;5132579;27;20291;-75
2023/07/02 06:16:28;;;;;;;17.30;10.32;;;;;;;-143.21;74.65;71126.41;5132805;27;20195;-78
2023/07/02 06:18:54;;;;;;;15.10;9.30;;;;;;;-143.21;74.89;71114.53;5132938;27;20191;-78
2023/07/02 06:21:21;;;;;;;14.80;9.77;;;;;;;-143.21;74.28;71096.69;5132313;27;20234;-78
2023/07/02 06:23:48;;;;;;;15.48;9.35;;;;;;;-143.21;73.98;71080.81;5147215;27;20254;-77
2023/07/02 06:26:15;;;;;;;16.95;9.20;;;;;;;-143.21;73.75;71066.94;5153207;27;20195;-79
2023/07/02 06:28:42;;;;;;;19.42;9.30;;;;;;;-143.21;73.06;71062.97;5153628;27;20771;-78
2023/07/02 06:31:12;;;;;;;18.00;9.82;;;;;;;-143.21;73.07;71062.97;5153263;27;20661;-78
2023/07/02 06:33:40;;;;;;;21.52;9.30;;;;;;;-143.21;73.29;71055.06;5153200;27;20317;-76
2023/07/02 06:36:07;;;;;;;16.92;9.85;;;;;;;-143.21;72.49;71037.22;5143627;27;20291;-78
2023/07/02 06:38:34;;;;;;;17.75;9.48;;;;;;;-143.21;72.10;71025.31;5132074;27;20263;-78
2023/07/02 06:41:01;;;;;;;15.60;9.07;;;;;;;-143.21;71.70;71021.34;5131394;27;20207;-78
2023/07/02 06:43:28;;;;;;;17.58;8.35;;;;;;;-143.21;71.77;71007.47;5132999;27;20195;-78
2023/07/02 06:45:54;;;;;;;12.70;8.93;;;;;;;-143.21;71.63;70997.56;5133780;27;20191;-86
2023/07/02 06:48:23;;;;;;;13.77;9.35;;;;;;;-143.21;70.44;70979.72;5123161;27;20313;-77
2023/07/02 06:50:49;;;;;;;13.82;9.20;;;;;;;-143.21;70.68;70979.72;5112774;28;20257;-78
2023/07/02 06:53:16;;;;;;;16.73;9.77;;;;;;;-143.21;70.23;70977.72;5112308;28;20231;-77
2023/07/02 06:55:43;;;;;;;16.20;9.70;;;;;;;-143.21;69.84;70977.72;5112404;28;20203;-79
2023/07/02 06:58:10;;;;;;;16.60;9.10;;;;;;;-143.21;70.23;70977.72;5111405;28;20206;-79
2023/07/02 07:00:37;;;;;;;18.50;9.30;;;;;;;-143.21;70.18;70983.69;5113013;28;20188;-80
2023/07/02 07:03:04;;;;;;;14.02;8.73;;;;;;;-143.21;70.02;70965.84;5113222;28;20196;-77
2023/07/02 07:05:33;;;;;;;20.48;9.45;;;;;;;-143.21;70.05;70961.88;5116585;27;20200;-77
2023/07/02 07:08:00;;;;;;;16.27;9.60;;;;;;;-143.21;70.18;70967.81;5132648;27;20195;-80
2023/07/02 07:10:27;;;;;;;16.70;9.70;;;;;;;-143.21;70.15;70965.84;5132407;27;20199;-79
2023/07/02 07:12:54;;;;;;;19.63;8.40;;;;;;;-143.21;70.13;70961.88;5132892;27;20732;-78
2023/07/02 07:15:21;;;;;;;14.73;8.80;;;;;;;-143.21;69.91;70948.00;5132605;27;20978;-80
2023/07/02 07:17:48;;;;;;;16.30;8.43;;;;;;;-143.21;69.50;70938.09;5133015;27;20195;-79
2023/07/02 07:20:15;;;;;;;14.07;8.40;;;;;;;-143.21;68.24;70926.19;5132318;27;20965;-79
2023/07/02 07:22:43;;;;;;;15.30;9.65;;;;;;;-143.21;68.00;70930.16;5132313;27;20563;-80
2023/07/02 07:25:10;;;;;;;14.05;8.85;;;;;;;-143.21;68.18;70922.22;5132595;27;20202;-79
2023/07/02 07:27:37;;;;;;;18.02;8.70;;;;;;;-143.21;67.95;70926.19;5131850;27;20689;-78
2023/07/02 07:30:05;;;;;;;15.73;8.32;;;;;;;-143.21;67.33;70930.16;5131251;27;20199;-78
2023/07/02 07:32:32;;;;;;;12.63;8.05;;;;;;;-143.21;67.71;70920.25;5131544;27;20227;-78
2023/07/02 07:34:58;;;;;;;13.55;7.70;;;;;;;-143.21;67.48;70912.31;5131384;27;20282;-78
2023/07/02 07:37:26;;;;;;;15.07;7.70;;;;;;;-143.21;68.11;70904.38;5131645;27;20593;-78
2023/07/02 07:39:54;;;;;;;13.38;8.13;;;;;;;-143.21;66.34;70892.50;5131025;27;20298;-79
2023/07/02 07:42:21;;;;;;;16.25;8.07;;;;;;;-143.21;67.09;70892.50;5129595;27;20629;-78
2023/07/02 07:44:48;;;;;;;17.30;8.05;;;;;;;-143.21;67.35;70892.50;5130860;27;20214;-78
2023/07/02 07:47:15;;;;;;;11.07;7.88;;;;;;;-143.21;67.93;70880.59;5130593;27;20195;-79
2023/07/02 07:49:41;;;;;;;14.98;8.48;;;;;;;-143.21;67.98;70880.59;5130631;27;20279;-79
2023/07/02 07:52:08;;;;;;;15.90;9.15;;;;;;;-143.21;67.42;70866.72;5130981;27;20191;-80
2023/07/02 07:54:35;;;;;;;15.73;8.57;;;;;;;-143.21;67.30;70866.72;5130183;27;20223;-79
2023/07/02 07:57:04;;;;;;;13.30;8.68;;;;;;;-143.21;67.53;70864.75;5130550;27;20195;-78
2023/07/02 07:59:31;;;;;;;16.13;8.15;;;;;;;-143.21;67.92;70854.84;5130661;27;20192;-78
2023/07/02 08:01:58;;;;;;;15.70;8.75;;;;;;;-143.21;67.47;70852.84;5130587;27;20206;-78
2023/07/02 08:04:24;;;;;;;18.70;8.90;;;;;;;-143.21;67.91;70852.84;5130967;27;20191;-79
2023/07/02 08:06:51;;;;;;;15.57;8.85;;;;;;;-143.21;67.12;70846.91;5130419;27;20206;-79
2023/07/02 08:09:18;;;;;;;20.08;8.75;;;;;;;-143.21;66.69;70837.00;5129912;27;20200;-78
2023/07/02 08:11:45;;;;;;;15.75;9.02;;;;;;;-143.21;66.87;70831.03;5130731;27;20188;-79
2023/07/02 08:14:14;;;;;;;15.00;9.05;;;;;;;-143.21;66.63;70829.06;5130472;27;20678;-80
2023/07/02 08:16:41;;;;;;;18.17;7.97;;;;;;;-143.21;66.73;70819.16;5130160;27;20263;-79
2023/07/02 08:19:08;;;;;;;15.57;7.63;;;;;;;-143.21;66.85;70811.22;5131470;27;20662;-82
2023/07/02 08:21:35;;;;;;;7.60;4.65;;;;;;;-143.21;70.55;70777.53;5132146;27;20246;-83
2023/07/02 08:24:01;;;;;;;18.38;7.45;;;;;;;-143.21;67.63;70761.66;5132561;27;20197;-83
2023/07/02 08:26:28;;;;;;;15.50;8.15;;;;;;;-143.21;66.33;70749.78;5132175;27;20195;-83
2023/07/02 08:28:55;;;;;;;9.98;5.75;;;;;;;-143.21;66.74;70731.94;5132338;27;20199;-81
2023/07/02 08:31:23;;;;;;;13.02;7.85;;;;;;;-143.21;65.61;70700.22;5132043;27;20195;-82
2023/07/02 08:33:50;;;;;;;15.38;7.85;;;;;;;-143.21;63.41;70684.34;5131852;27;20219;-83
2023/07/02 08:36:17;;;;;;;15.82;7.85;;;;;;;-143.21;63.64;70676.44;5132393;27;20203;-83
2023/07/02 08:38:44;;;;;;;12.23;7.80;;;;;;;-143.21;62.78;70652.66;5132013;27;20203;-83
2023/07/02 08:41:11;;;;;;;17.65;7.63;;;;;;;-143.21;62.11;70634.81;5130492;27;20271;-84
2023/07/02 08:43:38;;;;;;;11.13;7.32;;;;;;;-143.21;61.75;70616.97;5132390;27;20214;-83
2023/07/02 08:46:06;;;;;;;14.75;7.72;;;;;;;-143.21;60.92;70595.16;5131549;27;20984;-85
2023/07/02 08:48:37;;;;;;;16.60;7.80;;;;;;;-143.21;59.12;70581.28;5132284;27;20187;-83
2023/07/02 08:51:04;;;;;;;10.95;7.55;;;;;;;-143.21;59.45;70577.31;5132038;27;20183;-83
2023/07/02 08:53:33;;;;;;;13.75;7.35;;;;;;;-143.21;59.59;70577.31;5132102;27;20219;-83
2023/07/02 08:56:00;;;;;;;14.77;8.35;;;;;;;-143.21;58.97;70587.22;5131613;27;20203;-82
2023/07/02 08:58:26;;;;;;;11.73;7.50;;;;;;;-143.21;59.55;70579.31;5131990;27;20635;-83
2023/07/02 09:01:09;;;;;;;15.13;8.45;;;;;;;-143.21;59.83;70575.34;5131870;27;20202;-83
2023/07/02 09:03:38;;;;;;;14.43;7.43;;;;;;;-143.21;60.02;70565.44;5129273;27;20225;-83
2023/07/02 09:06:05;;;;;;;18.90;9.98;;;;;;;-143.21;58.94;70555.50;5130195;28;20608;-84
2023/07/02 09:08:34;;;;;;;19.35;11.32;;;;;;;-143.21;59.12;70549.56;5130101;28;20589;-82
2023/07/02 09:11:11;;;;;;;15.77;7.57;;;;;;;-143.21;58.98;70527.75;5131745;28;20222;-84
2023/07/02 09:13:45;;;;;;;13.18;7.38;;;;;;;-143.21;58.65;70502.00;5132198;28;20199;-84
2023/07/02 09:16:26;;;;;;;13.18;7.43;;;;;;;-143.21;58.53;70478.22;5131726;28;20657;-83
2023/07/02 09:19:05;;;;;;;15.18;8.65;;;;;;;-143.21;57.26;70468.31;5131616;28;20195;-84
2023/07/02 09:21:44;;;;;;;14.77;7.80;;;;;;;-143.21;59.51;70456.41;5133576;27;20245;-83
2023/07/02 09:24:15;;;;;;;12.60;7.15;;;;;;;-143.21;59.02;70430.66;5136505;27;20175;-83
2023/07/02 09:26:46;;;;;;;14.70;7.85;;;;;;;-143.21;58.08;70410.81;5136078;27;20738;-80
2023/07/02 09:29:13;;;;;;;16.58;10.00;;;;;;;-143.21;55.58;70404.88;5135312;27;20198;-84
2023/07/02 09:31:48;;;;;;;17.00;9.70;;;;;;;-143.21;55.35;70391.00;5135635;27;20194;-83
2023/07/02 09:34:16;;;;;;;13.00;7.38;;;;;;;-143.21;54.40;70396.94;5135770;27;20705;-85
2023/07/02 09:36:43;;;;;;;10.73;6.70;;;;;;;-143.21;54.70;70400.91;5136552;27;20195;-83
2023/07/02 09:39:13;;;;;;;13.95;7.18;;;;;;;-143.21;53.94;70406.84;5135651;27;20206;-83
2023/07/02 09:41:42;;;;;;;12.25;6.75;;;;;;;-143.21;54.41;70412.81;5134332;27;20195;-84
2023/07/02 09:44:10;;;;;;;10.27;6.57;;;;;;;-143.21;53.57;70408.84;5135609;27;20226;-83
2023/07/02 09:46:41;;;;;;;13.35;7.20;;;;;;;-143.21;53.22;70389.03;5135309;27;20223;-83
2023/07/02 09:49:15;;;;;;;10.75;6.60;;;;;;;-143.21;52.81;70379.09;5135658;27;20284;-83
2023/07/02 09:51:44;;;;;;;16.60;6.80;;;;;;;-143.21;53.15;70363.25;5135588;27;20614;-81
2023/07/02 09:54:11;;;;;;;14.60;6.97;;;;;;;-143.21;52.77;70347.41;5134893;27;20216;-80
2023/07/02 09:56:38;;;;;;;10.60;6.65;;;;;;;-143.21;51.25;70347.41;5134564;27;20191;-80
2023/07/02 09:59:05;;;;;;;9.48;6.30;;;;;;;-143.21;50.91;70363.25;5135496;27;20252;-80
2023/07/02 10:01:32;;;;;;;11.30;6.85;;;;;;;-143.21;51.18;70375.16;5134363;27;20205;-80
2023/07/02 10:03:59;;;;;;;10.23;6.55;;;;;;;-143.21;51.27;70379.09;5135322;27;20353;-83
2023/07/02 10:06:26;;;;;;;8.07;6.38;;;;;;;-143.21;51.90;70389.03;5135540;27;20203;-84
2023/07/02 10:08:57;;;;;;;8.13;5.65;;;;;;;-143.21;51.05;70387.03;5114088;27;20204;-80
2023/07/02 10:11:35;;;;;;;9.88;5.60;;;;;;;-143.21;51.17;70361.28;5113876;28;20425;-81
2023/07/02 10:14:02;;;;;;;8.30;5.93;;;;;;;-143.21;51.75;70337.50;5114055;28;20208;-83
2023/07/02 10:16:31;;;;;;;18.10;6.50;;;;;;;-143.21;52.03;70317.66;5116539;27;20203;-81
2023/07/02 10:19:09;;;;;;;7.72;6.00;;;;;;;-143.21;50.07;70293.88;5135146;27;20253;-81
2023/07/02 10:21:36;;;;;;;10.38;5.85;;;;;;;-143.21;50.60;70278.03;5133276;27;20743;-77
2023/07/02 10:24:12;;;;;;;7.15;5.38;;;;;;;-143.21;50.82;70254.25;5134229;27;20592;-77
2023/07/02 10:26:39;;;;;;;9.73;6.38;;;;;;;-143.21;50.03;70224.50;5134738;27;20223;-77
2023/07/02 10:29:07;;;;;;;13.10;6.28;;;;;;;-143.21;49.72;70218.56;5134400;27;20199;-79
2023/07/02 10:31:37;;;;;;;9.68;6.38;;;;;;;-143.21;49.05;70202.72;5133667;27;20198;-79
2023/07/02 10:34:04;;;;;;;10.77;6.45;;;;;;;-143.21;48.45;70200.72;5134289;27;20211;-78
2023/07/02 10:36:31;;;;;;;9.77;6.72;;;;;;;-143.21;48.66;70190.81;5134134;27;20286;-77
2023/07/02 10:39:05;;;;;;;8.20;5.85;;;;;;;-143.21;47.37;70192.81;5134069;27;20195;-79
2023/07/02 10:41:33;;;;;;;8.10;5.78;;;;;;;-143.21;47.07;70220.56;5134225;27;20188;-79
2023/07/02 10:44:07;;;;;;;9.20;5.38;;;;;;;-143.21;46.65;70232.44;5134215;27;20191;-79
2023/07/02 10:46:35;;;;;;;9.68;6.00;;;;;;;-143.21;47.21;70250.28;5133662;27;20188;-78
2023/07/02 10:49:02;;;;;;;8.70;5.57;;;;;;;-143.21;47.68;70254.25;5134073;27;20202;-79
2023/07/02 10:51:29;;;;;;;7.13;5.60;;;;;;;-143.21;46.82;70238.38;5131385;27;20183;-79
2023/07/02 10:53:59;;;;;;;10.77;5.63;;;;;;;-143.21;45.30;70266.13;5133268;27;20293;-79
2023/07/02 10:56:29;;;;;;;7.82;5.50;;;;;;;-143.21;46.16;70282.00;5133485;27;20183;-78
2023/07/02 10:58:58;;;;;;;12.30;5.85;;;;;;;-143.21;46.58;70260.19;5133648;27;20195;-78
2023/07/02 11:01:26;;;;;;;9.43;5.63;;;;;;;-143.21;47.05;70238.38;5133691;27;20660;-79
2023/07/02 11:03:59;;;;;;;12.15;5.65;;;;;;;-143.21;47.05;70222.53;5134253;27;20546;-80
2023/07/02 11:06:26;;;;;;;11.05;6.13;;;;;;;-143.21;46.76;70216.59;5131652;27;20215;-78
2023/07/02 11:08:54;;;;;;;7.70;5.63;;;;;;;-143.21;45.32;70212.63;5133712;27;20191;-79
2023/07/02 11:11:23;;;;;;;9.85;5.53;;;;;;;-143.21;46.16;70196.78;5133974;27;20219;-80
2023/07/02 11:13:51;;;;;;;8.02;5.43;;;;;;;-143.21;44.76;70165.06;5133386;27;20223;-79